Chitose — JD2925 — position and weather

sailwx.info

Track history (hours):
 
Tides and Currents Weather Stations Pressure Air Temp Water Temp Dewpoint Dewpoint Depression Visibility Wind Speed Wind Dir Waves Ship Positions

Chitose

Last reported at 2018-Feb-20 08:44 UTC. Time now 2018-Feb-20 19:28 UTC.
Position N 35°27' E 139°39'.

Length 33 m; draft 3.8 m.

Type: Tug. MMSI: 431000953.

Date/timePositionNaut miles runAvg speedWind from/ knotsBaromVisibWave heightAir tempDewpointWater temp
2018-Feb-20 08:44N 35°27' E 139°39'0 0.0
2018-Feb-20 08:30N 35°27' E 139°39'0 0.0
2018-Feb-20 08:01N 35°27' E 139°39'0 0.0
2018-Feb-20 07:30N 35°27' E 139°39'0 0.0
2018-Feb-20 07:00N 35°27' E 139°39'0 0.0
2018-Feb-20 06:30N 35°27' E 139°39'0 0.0
2018-Feb-20 06:01N 35°27' E 139°39'0 0.8
2018-Feb-20 05:31N 35°28' E 139°39'5 9.8
2018-Feb-20 05:00N 35°30' E 139°44'2 3.6
2018-Feb-20 04:30N 35°31' E 139°46'2 3.1
2018-Feb-20 04:00N 35°30' E 139°45'3 6.0
2018-Feb-20 03:30N 35°28' E 139°43'1 1.8
2018-Feb-20 03:01N 35°28' E 139°44'3 5.2
2018-Feb-20 02:30N 35°27' E 139°40'0 0.3
2018-Feb-20 02:00N 35°28' E 139°40'0 0.0
2018-Feb-20 01:30N 35°28' E 139°40'0 0.0
2018-Feb-20 01:00N 35°28' E 139°40'0 0.0
2018-Feb-20 00:30N 35°28' E 139°40'0 0.0
2018-Feb-20 00:01N 35°28' E 139°40'1 2.1
2018-Feb-19 23:31N 35°27' E 139°41'2 3.9
2018-Feb-19 23:00N 35°27' E 139°39'0 0.0
2018-Feb-19 22:30N 35°27' E 139°39'0 0.0
2018-Feb-19 07:09N 35°27' E 139°39'0 0.0
2018-Feb-19 07:01N 35°27' E 139°39'0 0.0
2018-Feb-19 06:31N 35°27' E 139°39'0 0.0
2018-Feb-19 06:00N 35°27' E 139°39'0 0.0
2018-Feb-19 05:30N 35°27' E 139°39'0 0.0
2018-Feb-19 05:00N 35°27' E 139°39'0 0.0
2018-Feb-19 04:30N 35°27' E 139°39'0 0.0
2018-Feb-19 04:00N 35°27' E 139°39'0 0.0
2018-Feb-19 03:30N 35°27' E 139°39'0 0.0
2018-Feb-19 03:00N 35°27' E 139°39'0 0.0
2018-Feb-19 02:30N 35°27' E 139°39'0 0.0
2018-Feb-19 02:00N 35°27' E 139°39'0 0.0
2018-Feb-19 01:30N 35°27' E 139°39'0 0.0
2018-Feb-19 01:00N 35°27' E 139°39'0 0.0
2018-Feb-19 00:30N 35°27' E 139°39'0 0.0
2018-Feb-19 00:01N 35°27' E 139°39'0 0.0
2018-Feb-18 23:30N 35°27' E 139°39'2 4.6
2018-Feb-18 23:01N 35°28' E 139°41'2 3.4
2018-Feb-18 22:30N 35°29' E 139°43'0 0.7
2018-Feb-18 22:00N 35°29' E 139°42'2 3.1
2018-Feb-18 21:30N 35°28' E 139°42'2 3.3
2018-Feb-18 21:00N 35°27' E 139°44'3 5.2
2018-Feb-18 20:30N 35°27' E 139°41'2 3.9
2018-Feb-18 20:00N 35°27' E 139°39'0 0.0
2018-Feb-18 10:13N 35°27' E 139°39'0 0.0
2018-Feb-18 10:00N 35°27' E 139°39'0 0.0
2018-Feb-18 09:30N 35°27' E 139°39'0 0.6
2018-Feb-18 09:00N 35°28' E 139°39'4 8.7
2018-Feb-18 08:30N 35°28' E 139°44'3 6.6
2018-Feb-18 08:00N 35°30' E 139°47'1 2.1
2018-Feb-18 07:30N 35°30' E 139°45'4 8.9
2018-Feb-18 07:00N 35°28' E 139°41'1 2.8
2018-Feb-18 06:31N 35°27' E 139°39'0 0.0
2018-Feb-18 06:00N 35°27' E 139°39'0 0.0
2018-Feb-18 05:30N 35°27' E 139°39'2 3.3
2018-Feb-18 05:00N 35°28' E 139°41'3 5.4
2018-Feb-18 04:30N 35°30' E 139°44'2 4.5
2018-Feb-18 04:00N 35°31' E 139°46'3 6.2
2018-Feb-18 03:30N 35°29' E 139°43'2 3.7
2018-Feb-18 03:00N 35°28' E 139°44'0 0.5
2018-Feb-18 02:30N 35°28' E 139°44'0 0.0
2018-Feb-18 02:00N 35°28' E 139°44'0 0.1
2018-Feb-18 01:30N 35°28' E 139°44'0 0.1
2018-Feb-18 01:01N 35°28' E 139°44'0 0.0
2018-Feb-18 00:30N 35°28' E 139°44'1 2.6
2018-Feb-18 00:00N 35°28' E 139°42'1 1.9
2018-Feb-17 23:30N 35°27' E 139°43'1 1.2
2018-Feb-17 23:00N 35°27' E 139°42'1 2.9
2018-Feb-17 22:31N 35°27' E 139°41'0 0.7
2018-Feb-17 22:00N 35°27' E 139°41'0 0.9
2018-Feb-17 21:30N 35°26' E 139°42'3 5.3
2018-Feb-17 21:00N 35°27' E 139°39'0 0.0
2018-Feb-17 20:31N 35°27' E 139°39'0 0.0
2018-Feb-17 20:00N 35°27' E 139°39'0 0.0
2018-Feb-17 09:54N 35°27' E 139°39'0 0.0
2018-Feb-17 09:30N 35°27' E 139°39'2 4.0
2018-Feb-17 09:00N 35°27' E 139°41'3 5.7
2018-Feb-17 08:30N 35°24' E 139°41'1 1.4
2018-Feb-17 08:00N 35°24' E 139°41'2 3.4
2018-Feb-17 07:31N 35°25' E 139°42'3 5.9
2018-Feb-17 07:01N 35°27' E 139°39'0 0.0
2018-Feb-17 06:30N 35°27' E 139°39'0 0.1
2018-Feb-17 06:00N 35°27' E 139°39'0 0.1
2018-Feb-17 05:30N 35°27' E 139°39'0 0.0
2018-Feb-17 05:00N 35°27' E 139°39'0 0.0
2018-Feb-17 04:30N 35°27' E 139°39'0 0.0
2018-Feb-17 04:00N 35°27' E 139°39'0 0.0
2018-Feb-17 03:30N 35°27' E 139°39'0 0.1
2018-Feb-17 03:00N 35°27' E 139°39'0 0.0
2018-Feb-17 02:30N 35°27' E 139°39'0 0.1
2018-Feb-17 02:00N 35°27' E 139°39'0 0.9
2018-Feb-17 01:30N 35°28' E 139°40'3 6.6
2018-Feb-17 01:01N 35°29' E 139°43'0 0.1
2018-Feb-17 00:30N 35°29' E 139°43'2 4.7
2018-Feb-17 00:00N 35°27' E 139°43'4 8.4
2018-Feb-16 23:31N 35°29' E 139°48'1 2.8
2018-Feb-16 23:00N 35°28' E 139°47'4 8.4
2018-Feb-16 22:30N 35°27' E 139°42'3 5.1
2018-Feb-16 22:00N 35°27' E 139°39'0 0.0
2018-Feb-16 21:31N 35°27' E 139°39'0 0.0
2018-Feb-16 10:33N 35°27' E 139°39'0 0.0
2018-Feb-16 10:30N 35°27' E 139°39'0 0.0
2018-Feb-16 10:00N 35°27' E 139°39'0 0.0
2018-Feb-16 09:30N 35°27' E 139°39'0 0.0
2018-Feb-16 09:00N 35°27' E 139°39'0 0.0
2018-Feb-16 08:30N 35°27' E 139°39'0 0.0
2018-Feb-16 08:00N 35°27' E 139°39'0 0.0
2018-Feb-16 07:30N 35°27' E 139°39'0 0.0
2018-Feb-16 07:00N 35°27' E 139°39'0 0.0
2018-Feb-16 06:30N 35°27' E 139°39'0 0.0
2018-Feb-16 06:00N 35°27' E 139°39'0 0.0
2018-Feb-16 05:30N 35°27' E 139°39'0 0.0
2018-Feb-16 05:00N 35°27' E 139°39'0 0.0
2018-Feb-16 04:30N 35°27' E 139°39'0 0.0
2018-Feb-16 04:00N 35°27' E 139°39'0 0.0
2018-Feb-16 03:30N 35°27' E 139°39'0 0.0
2018-Feb-16 03:00N 35°27' E 139°39'0 0.0
2018-Feb-16 02:30N 35°27' E 139°39'0 0.0
2018-Feb-16 02:00N 35°27' E 139°39'0 0.0
2018-Feb-16 01:30N 35°27' E 139°39'0 0.0
2018-Feb-16 01:00N 35°27' E 139°39'0 0.0
2018-Feb-16 00:30N 35°27' E 139°39'0 0.0
2018-Feb-16 00:00N 35°27' E 139°39'0 0.0
2018-Feb-15 23:30N 35°27' E 139°39'0 0.0
2018-Feb-15 23:00N 35°27' E 139°39'1 2.5
2018-Feb-15 22:30N 35°28' E 139°40'1 2.0
2018-Feb-15 22:01N 35°28' E 139°41'2 3.5
2018-Feb-15 21:30N 35°27' E 139°43'1 1.5
2018-Feb-15 21:00N 35°27' E 139°42'0 0.1
2018-Feb-15 20:30N 35°27' E 139°42'0 0.1
2018-Feb-15 20:00N 35°27' E 139°42'1 1.6
2018-Feb-15 19:30N 35°27' E 139°41'1 1.1
2018-Feb-15 19:00N 35°26' E 139°41'0 0.2
2018-Feb-15 18:31N 35°26' E 139°41'1 2.3
2018-Feb-15 18:00N 35°27' E 139°42'0 0.0
2018-Feb-15 17:30N 35°27' E 139°42'0 0.0
2018-Feb-15 17:00N 35°27' E 139°42'0 0.0
2018-Feb-15 16:30N 35°27' E 139°42'0 0.0
2018-Feb-15 16:00N 35°27' E 139°42'0 0.0
2018-Feb-15 15:30N 35°27' E 139°42'1 2.1
2018-Feb-15 15:00N 35°28' E 139°42'0 1.0
2018-Feb-15 14:31N 35°28' E 139°41'1 1.2
2018-Feb-15 14:00N 35°28' E 139°42'0 0.0
2018-Feb-15 13:30N 35°28' E 139°42'0 0.0
2018-Feb-15 13:00N 35°28' E 139°42'0 0.0
2018-Feb-15 12:30N 35°28' E 139°42'0 0.0
2018-Feb-15 12:00N 35°28' E 139°42'1 2.3
2018-Feb-15 11:30N 35°27' E 139°41'1 1.2
2018-Feb-15 11:00N 35°26' E 139°41'2 3.3
2018-Feb-15 10:30N 35°26' E 139°43'1 2.1
2018-Feb-15 10:00N 35°27' E 139°42'0 0.0
2018-Feb-15 09:30N 35°27' E 139°42'0 0.0
2018-Feb-15 09:00N 35°27' E 139°42'0 0.0
2018-Feb-15 08:30N 35°27' E 139°42'0 0.0
2018-Feb-15 08:01N 35°27' E 139°42'1 2.0
2018-Feb-15 07:30N 35°26' E 139°41'2 4.1
2018-Feb-15 07:00N 35°27' E 139°39'0 0.0
2018-Feb-15 06:30N 35°27' E 139°39'0 0.0
2018-Feb-15 06:00N 35°27' E 139°39'0 0.0
2018-Feb-15 05:30N 35°27' E 139°39'0 0.0
2018-Feb-15 05:00N 35°27' E 139°39'0 0.0
2018-Feb-15 04:30N 35°27' E 139°39'0 0.0
2018-Feb-15 04:00N 35°27' E 139°39'0 0.0
2018-Feb-15 03:30N 35°27' E 139°39'0 0.0
2018-Feb-15 03:00N 35°27' E 139°39'0 0.0
2018-Feb-15 02:30N 35°27' E 139°39'0 0.0
2018-Feb-15 02:00N 35°27' E 139°39'0 0.0
2018-Feb-15 01:30N 35°27' E 139°39'0 0.0
2018-Feb-15 01:00N 35°27' E 139°39'0 0.0
2018-Feb-15 00:30N 35°27' E 139°39'0 0.0
2018-Feb-15 00:00N 35°27' E 139°39'0 0.0
2018-Feb-14 23:30N 35°27' E 139°39'0 0.0
2018-Feb-14 23:00N 35°27' E 139°39'0 0.0
2018-Feb-14 22:30N 35°27' E 139°39'0 0.0
2018-Feb-14 22:00N 35°27' E 139°39'0 0.0
2018-Feb-14 21:30N 35°27' E 139°39'0 0.0
2018-Feb-14 21:00N 35°27' E 139°39'0 0.0
2018-Feb-14 20:30N 35°27' E 139°39'0 0.0
2018-Feb-14 08:04N 35°27' E 139°39'0 0.0
2018-Feb-14 08:00N 35°27' E 139°39'0 0.0
2018-Feb-14 07:30N 35°27' E 139°39'0 0.0
2018-Feb-14 07:00N 35°27' E 139°39'0 0.0
2018-Feb-14 06:30N 35°27' E 139°39'0 0.0
2018-Feb-14 06:00N 35°27' E 139°39'0 0.0
2018-Feb-14 05:30N 35°27' E 139°39'0 0.0
2018-Feb-14 05:00N 35°27' E 139°39'0 0.0
2018-Feb-14 04:30N 35°27' E 139°39'0 0.0
2018-Feb-14 04:00N 35°27' E 139°39'1 1.0
2018-Feb-14 03:30N 35°28' E 139°39'2 3.4
2018-Feb-14 03:00N 35°27' E 139°41'0 0.3
2018-Feb-14 02:30N 35°27' E 139°41'2 3.8
2018-Feb-14 02:00N 35°27' E 139°39'0 0.0
2018-Feb-14 01:31N 35°27' E 139°39'0 0.0
2018-Feb-14 01:00N 35°27' E 139°39'0 0.0
2018-Feb-14 00:31N 35°27' E 139°39'0 0.0
2018-Feb-14 00:00N 35°27' E 139°39'1 1.5
2018-Feb-13 23:30N 35°27' E 139°39'4 9.0
2018-Feb-13 23:00N 35°28' E 139°45'3 5.7
2018-Feb-13 22:30N 35°31' E 139°46'0 1.0
2018-Feb-13 22:00N 35°31' E 139°46'3 5.9
2018-Feb-13 21:31N 35°29' E 139°43'4 8.3
2018-Feb-13 21:00N 35°27' E 139°39'0 0.0
2018-Feb-13 20:30N 35°27' E 139°39'0 0.0
2018-Feb-13 07:08N 35°27' E 139°39'0 0.0
2018-Feb-13 07:00N 35°27' E 139°39'0 0.0
2018-Feb-13 06:30N 35°27' E 139°39'2 3.1
2018-Feb-13 06:00N 35°27' E 139°40'1 2.4
2018-Feb-13 05:30N 35°26' E 139°41'2 4.2
2018-Feb-13 05:00N 35°27' E 139°39'0 0.0
2018-Feb-13 04:30N 35°27' E 139°39'0 0.0
2018-Feb-13 04:01N 35°27' E 139°39'0 0.0
2018-Feb-13 03:31N 35°27' E 139°39'0 0.0
2018-Feb-13 03:00N 35°27' E 139°39'0 0.0
2018-Feb-13 02:29N 35°27' E 139°39'0 0.0
2018-Feb-13 02:00N 35°27' E 139°39'0 0.0
2018-Feb-13 01:30N 35°27' E 139°39'0 0.0
2018-Feb-13 01:00N 35°27' E 139°39'0 0.0
2018-Feb-13 00:30N 35°27' E 139°39'0 0.0
2018-Feb-13 00:00N 35°27' E 139°39'0 0.0
2018-Feb-12 23:31N 35°27' E 139°39'2 3.9
2018-Feb-12 23:00N 35°27' E 139°41'4 8.0
2018-Feb-12 22:30N 35°28' E 139°45'2 4.4
2018-Feb-12 22:00N 35°31' E 139°46'1 2.1
2018-Feb-12 21:30N 35°32' E 139°46'3 6.1
2018-Feb-12 21:00N 35°29' E 139°43'4 8.5
2018-Feb-12 20:31N 35°27' E 139°39'0 0.0
2018-Feb-12 20:00N 35°27' E 139°39'0 0.0
2018-Feb-12 05:42N 35°27' E 139°39'1 6.2
2018-Feb-12 05:30N 35°28' E 139°40'4 8.8
2018-Feb-12 05:01N 35°30' E 139°45'2 3.0
2018-Feb-12 04:30N 35°31' E 139°46'0 0.0
2018-Feb-12 04:00N 35°31' E 139°46'0 1.0
2018-Feb-12 03:30N 35°30' E 139°47'1 2.9
2018-Feb-12 03:00N 35°30' E 139°48'3 6.0
2018-Feb-12 02:30N 35°28' E 139°45'510.9
2018-Feb-12 02:00N 35°27' E 139°39'0 0.0
2018-Feb-12 01:31N 35°27' E 139°39'0 0.0
2018-Feb-12 01:01N 35°27' E 139°39'0 0.2
2018-Feb-12 00:31N 35°27' E 139°39'1 1.4
2018-Feb-12 00:00N 35°27' E 139°39'1 2.5
2018-Feb-11 23:31N 35°27' E 139°41'0 0.5
2018-Feb-11 23:00N 35°27' E 139°41'0 0.2
2018-Feb-11 22:30N 35°27' E 139°41'2 4.3
2018-Feb-11 22:00N 35°27' E 139°39'0 0.0
2018-Feb-11 21:30N 35°27' E 139°39'0 0.0
2018-Feb-11 21:00N 35°27' E 139°39'0 0.0
2018-Feb-11 20:30N 35°27' E 139°39'0 0.0
2018-Feb-11 20:00N 35°27' E 139°39'0 0.0
2018-Feb-11 19:30N 35°27' E 139°39'0 0.0
2018-Feb-11 19:00N 35°27' E 139°39'0 0.0
2018-Feb-11 07:11N 35°27' E 139°39'0 0.0
2018-Feb-11 07:00N 35°27' E 139°39'0 0.0
2018-Feb-11 06:30N 35°27' E 139°39'0 0.0
2018-Feb-11 06:00N 35°27' E 139°39'0 0.0
2018-Feb-11 05:31N 35°27' E 139°39'0 0.0
2018-Feb-11 05:01N 35°27' E 139°39'0 0.0
2018-Feb-11 04:31N 35°27' E 139°39'2 3.4
2018-Feb-11 04:01N 35°28' E 139°40'0 0.6
2018-Feb-11 03:31N 35°28' E 139°41'1 1.6
2018-Feb-11 03:00N 35°28' E 139°42'1 1.8
2018-Feb-11 02:30N 35°28' E 139°42'1 1.3
2018-Feb-11 02:00N 35°27' E 139°43'4 7.4
2018-Feb-11 01:30N 35°23' E 139°41'2 3.7
2018-Feb-11 01:01N 35°24' E 139°39'1 1.6
2018-Feb-11 00:30N 35°24' E 139°38'0 0.1
2018-Feb-11 00:00N 35°24' E 139°38'3 6.3
2018-Feb-10 23:31N 35°25' E 139°42'4 7.2
2018-Feb-10 23:01N 35°27' E 139°39'0 0.0
2018-Feb-10 22:30N 35°27' E 139°39'  
Track history (hours):
 
Tides and Currents Weather Stations Pressure Air Temp Water Temp Dewpoint Dewpoint Depression Visibility Wind Speed Wind Dir Waves Ship Positions

Chitose

Last reported at 2018-Feb-20 08:44 UTC. Time now 2018-Feb-20 19:28 UTC.
Position N 35°27' E 139°39'.

Length 33 m; draft 3.8 m.

Type: Tug. MMSI: 431000953.

Date/timePositionNaut miles runAvg speedWind from/ knotsBaromVisibWave heightAir tempDewpointWater temp
2018-Feb-20 08:44N 35°27' E 139°39'0 0.0
2018-Feb-20 08:30N 35°27' E 139°39'0 0.0
2018-Feb-20 08:01N 35°27' E 139°39'0 0.0
2018-Feb-20 07:30N 35°27' E 139°39'0 0.0
2018-Feb-20 07:00N 35°27' E 139°39'0 0.0
2018-Feb-20 06:30N 35°27' E 139°39'0 0.0
2018-Feb-20 06:01N 35°27' E 139°39'0 0.8
2018-Feb-20 05:31N 35°28' E 139°39'5 9.8
2018-Feb-20 05:00N 35°30' E 139°44'2 3.6
2018-Feb-20 04:30N 35°31' E 139°46'2 3.1
2018-Feb-20 04:00N 35°30' E 139°45'3 6.0
2018-Feb-20 03:30N 35°28' E 139°43'1 1.8
2018-Feb-20 03:01N 35°28' E 139°44'3 5.2
2018-Feb-20 02:30N 35°27' E 139°40'0 0.3
2018-Feb-20 02:00N 35°28' E 139°40'0 0.0
2018-Feb-20 01:30N 35°28' E 139°40'0 0.0
2018-Feb-20 01:00N 35°28' E 139°40'0 0.0
2018-Feb-20 00:30N 35°28' E 139°40'0 0.0
2018-Feb-20 00:01N 35°28' E 139°40'1 2.1
2018-Feb-19 23:31N 35°27' E 139°41'2 3.9
2018-Feb-19 23:00N 35°27' E 139°39'0 0.0
2018-Feb-19 22:30N 35°27' E 139°39'0 0.0
2018-Feb-19 07:09N 35°27' E 139°39'0 0.0
2018-Feb-19 07:01N 35°27' E 139°39'0 0.0
2018-Feb-19 06:31N 35°27' E 139°39'0 0.0
2018-Feb-19 06:00N 35°27' E 139°39'0 0.0
2018-Feb-19 05:30N 35°27' E 139°39'0 0.0
2018-Feb-19 05:00N 35°27' E 139°39'0 0.0
2018-Feb-19 04:30N 35°27' E 139°39'0 0.0
2018-Feb-19 04:00N 35°27' E 139°39'0 0.0
2018-Feb-19 03:30N 35°27' E 139°39'0 0.0
2018-Feb-19 03:00N 35°27' E 139°39'0 0.0
2018-Feb-19 02:30N 35°27' E 139°39'0 0.0
2018-Feb-19 02:00N 35°27' E 139°39'0 0.0
2018-Feb-19 01:30N 35°27' E 139°39'0 0.0
2018-Feb-19 01:00N 35°27' E 139°39'0 0.0
2018-Feb-19 00:30N 35°27' E 139°39'0 0.0
2018-Feb-19 00:01N 35°27' E 139°39'0 0.0
2018-Feb-18 23:30N 35°27' E 139°39'2 4.6
2018-Feb-18 23:01N 35°28' E 139°41'2 3.4
2018-Feb-18 22:30N 35°29' E 139°43'0 0.7
2018-Feb-18 22:00N 35°29' E 139°42'2 3.1
2018-Feb-18 21:30N 35°28' E 139°42'2 3.3
2018-Feb-18 21:00N 35°27' E 139°44'3 5.2
2018-Feb-18 20:30N 35°27' E 139°41'2 3.9
2018-Feb-18 20:00N 35°27' E 139°39'0 0.0
2018-Feb-18 10:13N 35°27' E 139°39'0 0.0
2018-Feb-18 10:00N 35°27' E 139°39'0 0.0
2018-Feb-18 09:30N 35°27' E 139°39'0 0.6
2018-Feb-18 09:00N 35°28' E 139°39'4 8.7
2018-Feb-18 08:30N 35°28' E 139°44'3 6.6
2018-Feb-18 08:00N 35°30' E 139°47'1 2.1
2018-Feb-18 07:30N 35°30' E 139°45'4 8.9
2018-Feb-18 07:00N 35°28' E 139°41'1 2.8
2018-Feb-18 06:31N 35°27' E 139°39'0 0.0
2018-Feb-18 06:00N 35°27' E 139°39'0 0.0
2018-Feb-18 05:30N 35°27' E 139°39'2 3.3
2018-Feb-18 05:00N 35°28' E 139°41'3 5.4
2018-Feb-18 04:30N 35°30' E 139°44'2 4.5
2018-Feb-18 04:00N 35°31' E 139°46'3 6.2
2018-Feb-18 03:30N 35°29' E 139°43'2 3.7
2018-Feb-18 03:00N 35°28' E 139°44'0 0.5
2018-Feb-18 02:30N 35°28' E 139°44'0 0.0
2018-Feb-18 02:00N 35°28' E 139°44'0 0.1
2018-Feb-18 01:30N 35°28' E 139°44'0 0.1
2018-Feb-18 01:01N 35°28' E 139°44'0 0.0
2018-Feb-18 00:30N 35°28' E 139°44'1 2.6
2018-Feb-18 00:00N 35°28' E 139°42'1 1.9
2018-Feb-17 23:30N 35°27' E 139°43'1 1.2
2018-Feb-17 23:00N 35°27' E 139°42'1 2.9
2018-Feb-17 22:31N 35°27' E 139°41'0 0.7
2018-Feb-17 22:00N 35°27' E 139°41'0 0.9
2018-Feb-17 21:30N 35°26' E 139°42'3 5.3
2018-Feb-17 21:00N 35°27' E 139°39'0 0.0
2018-Feb-17 20:31N 35°27' E 139°39'0 0.0
2018-Feb-17 20:00N 35°27' E 139°39'0 0.0
2018-Feb-17 09:54N 35°27' E 139°39'0 0.0
2018-Feb-17 09:30N 35°27' E 139°39'2 4.0
2018-Feb-17 09:00N 35°27' E 139°41'3 5.7
2018-Feb-17 08:30N 35°24' E 139°41'1 1.4
2018-Feb-17 08:00N 35°24' E 139°41'2 3.4
2018-Feb-17 07:31N 35°25' E 139°42'3 5.9
2018-Feb-17 07:01N 35°27' E 139°39'0 0.0
2018-Feb-17 06:30N 35°27' E 139°39'0 0.1
2018-Feb-17 06:00N 35°27' E 139°39'0 0.1
2018-Feb-17 05:30N 35°27' E 139°39'0 0.0
2018-Feb-17 05:00N 35°27' E 139°39'0 0.0
2018-Feb-17 04:30N 35°27' E 139°39'0 0.0
2018-Feb-17 04:00N 35°27' E 139°39'0 0.0
2018-Feb-17 03:30N 35°27' E 139°39'0 0.1
2018-Feb-17 03:00N 35°27' E 139°39'0 0.0
2018-Feb-17 02:30N 35°27' E 139°39'0 0.1
2018-Feb-17 02:00N 35°27' E 139°39'0 0.9
2018-Feb-17 01:30N 35°28' E 139°40'3 6.6
2018-Feb-17 01:01N 35°29' E 139°43'0 0.1
2018-Feb-17 00:30N 35°29' E 139°43'2 4.7
2018-Feb-17 00:00N 35°27' E 139°43'4 8.4
2018-Feb-16 23:31N 35°29' E 139°48'1 2.8
2018-Feb-16 23:00N 35°28' E 139°47'4 8.4
2018-Feb-16 22:30N 35°27' E 139°42'3 5.1
2018-Feb-16 22:00N 35°27' E 139°39'0 0.0
2018-Feb-16 21:31N 35°27' E 139°39'0 0.0
2018-Feb-16 10:33N 35°27' E 139°39'0 0.0
2018-Feb-16 10:30N 35°27' E 139°39'0 0.0
2018-Feb-16 10:00N 35°27' E 139°39'0 0.0
2018-Feb-16 09:30N 35°27' E 139°39'0 0.0
2018-Feb-16 09:00N 35°27' E 139°39'0 0.0
2018-Feb-16 08:30N 35°27' E 139°39'0 0.0
2018-Feb-16 08:00N 35°27' E 139°39'0 0.0
2018-Feb-16 07:30N 35°27' E 139°39'0 0.0
2018-Feb-16 07:00N 35°27' E 139°39'0 0.0
2018-Feb-16 06:30N 35°27' E 139°39'0 0.0
2018-Feb-16 06:00N 35°27' E 139°39'0 0.0
2018-Feb-16 05:30N 35°27' E 139°39'0 0.0
2018-Feb-16 05:00N 35°27' E 139°39'0 0.0
2018-Feb-16 04:30N 35°27' E 139°39'0 0.0
2018-Feb-16 04:00N 35°27' E 139°39'0 0.0
2018-Feb-16 03:30N 35°27' E 139°39'0 0.0
2018-Feb-16 03:00N 35°27' E 139°39'0 0.0
2018-Feb-16 02:30N 35°27' E 139°39'0 0.0
2018-Feb-16 02:00N 35°27' E 139°39'0 0.0
2018-Feb-16 01:30N 35°27' E 139°39'0 0.0
2018-Feb-16 01:00N 35°27' E 139°39'0 0.0
2018-Feb-16 00:30N 35°27' E 139°39'0 0.0
2018-Feb-16 00:00N 35°27' E 139°39'0 0.0
2018-Feb-15 23:30N 35°27' E 139°39'0 0.0
2018-Feb-15 23:00N 35°27' E 139°39'1 2.5
2018-Feb-15 22:30N 35°28' E 139°40'1 2.0
2018-Feb-15 22:01N 35°28' E 139°41'2 3.5
2018-Feb-15 21:30N 35°27' E 139°43'1 1.5
2018-Feb-15 21:00N 35°27' E 139°42'0 0.1
2018-Feb-15 20:30N 35°27' E 139°42'0 0.1
2018-Feb-15 20:00N 35°27' E 139°42'1 1.6
2018-Feb-15 19:30N 35°27' E 139°41'1 1.1
2018-Feb-15 19:00N 35°26' E 139°41'0 0.2
2018-Feb-15 18:31N 35°26' E 139°41'1 2.3
2018-Feb-15 18:00N 35°27' E 139°42'0 0.0
2018-Feb-15 17:30N 35°27' E 139°42'0 0.0
2018-Feb-15 17:00N 35°27' E 139°42'0 0.0
2018-Feb-15 16:30N 35°27' E 139°42'0 0.0
2018-Feb-15 16:00N 35°27' E 139°42'0 0.0
2018-Feb-15 15:30N 35°27' E 139°42'1 2.1
2018-Feb-15 15:00N 35°28' E 139°42'0 1.0
2018-Feb-15 14:31N 35°28' E 139°41'1 1.2
2018-Feb-15 14:00N 35°28' E 139°42'0 0.0
2018-Feb-15 13:30N 35°28' E 139°42'0 0.0
2018-Feb-15 13:00N 35°28' E 139°42'0 0.0
2018-Feb-15 12:30N 35°28' E 139°42'0 0.0
2018-Feb-15 12:00N 35°28' E 139°42'1 2.3
2018-Feb-15 11:30N 35°27' E 139°41'1 1.2
2018-Feb-15 11:00N 35°26' E 139°41'2 3.3
2018-Feb-15 10:30N 35°26' E 139°43'1 2.1
2018-Feb-15 10:00N 35°27' E 139°42'0 0.0
2018-Feb-15 09:30N 35°27' E 139°42'0 0.0
2018-Feb-15 09:00N 35°27' E 139°42'0 0.0
2018-Feb-15 08:30N 35°27' E 139°42'0 0.0
2018-Feb-15 08:01N 35°27' E 139°42'1 2.0
2018-Feb-15 07:30N 35°26' E 139°41'2 4.1
2018-Feb-15 07:00N 35°27' E 139°39'0 0.0
2018-Feb-15 06:30N 35°27' E 139°39'0 0.0
2018-Feb-15 06:00N 35°27' E 139°39'0 0.0
2018-Feb-15 05:30N 35°27' E 139°39'0 0.0
2018-Feb-15 05:00N 35°27' E 139°39'0 0.0
2018-Feb-15 04:30N 35°27' E 139°39'0 0.0
2018-Feb-15 04:00N 35°27' E 139°39'0 0.0
2018-Feb-15 03:30N 35°27' E 139°39'0 0.0
2018-Feb-15 03:00N 35°27' E 139°39'0 0.0
2018-Feb-15 02:30N 35°27' E 139°39'0 0.0
2018-Feb-15 02:00N 35°27' E 139°39'0 0.0
2018-Feb-15 01:30N 35°27' E 139°39'0 0.0
2018-Feb-15 01:00N 35°27' E 139°39'0 0.0
2018-Feb-15 00:30N 35°27' E 139°39'0 0.0
2018-Feb-15 00:00N 35°27' E 139°39'0 0.0
2018-Feb-14 23:30N 35°27' E 139°39'0 0.0
2018-Feb-14 23:00N 35°27' E 139°39'0 0.0
2018-Feb-14 22:30N 35°27' E 139°39'0 0.0
2018-Feb-14 22:00N 35°27' E 139°39'0 0.0
2018-Feb-14 21:30N 35°27' E 139°39'0 0.0
2018-Feb-14 21:00N 35°27' E 139°39'0 0.0
2018-Feb-14 20:30N 35°27' E 139°39'0 0.0
2018-Feb-14 08:04N 35°27' E 139°39'0 0.0
2018-Feb-14 08:00N 35°27' E 139°39'0 0.0
2018-Feb-14 07:30N 35°27' E 139°39'0 0.0
2018-Feb-14 07:00N 35°27' E 139°39'0 0.0
2018-Feb-14 06:30N 35°27' E 139°39'0 0.0
2018-Feb-14 06:00N 35°27' E 139°39'0 0.0
2018-Feb-14 05:30N 35°27' E 139°39'0 0.0
2018-Feb-14 05:00N 35°27' E 139°39'0 0.0
2018-Feb-14 04:30N 35°27' E 139°39'0 0.0
2018-Feb-14 04:00N 35°27' E 139°39'1 1.0
2018-Feb-14 03:30N 35°28' E 139°39'2 3.4
2018-Feb-14 03:00N 35°27' E 139°41'0 0.3
2018-Feb-14 02:30N 35°27' E 139°41'2 3.8
2018-Feb-14 02:00N 35°27' E 139°39'0 0.0
2018-Feb-14 01:31N 35°27' E 139°39'0 0.0
2018-Feb-14 01:00N 35°27' E 139°39'0 0.0
2018-Feb-14 00:31N 35°27' E 139°39'0 0.0
2018-Feb-14 00:00N 35°27' E 139°39'1 1.5
2018-Feb-13 23:30N 35°27' E 139°39'4 9.0
2018-Feb-13 23:00N 35°28' E 139°45'3 5.7
2018-Feb-13 22:30N 35°31' E 139°46'0 1.0
2018-Feb-13 22:00N 35°31' E 139°46'3 5.9
2018-Feb-13 21:31N 35°29' E 139°43'4 8.3
2018-Feb-13 21:00N 35°27' E 139°39'0 0.0
2018-Feb-13 20:30N 35°27' E 139°39'0 0.0
2018-Feb-13 07:08N 35°27' E 139°39'0 0.0
2018-Feb-13 07:00N 35°27' E 139°39'0 0.0
2018-Feb-13 06:30N 35°27' E 139°39'2 3.1
2018-Feb-13 06:00N 35°27' E 139°40'1 2.4
2018-Feb-13 05:30N 35°26' E 139°41'2 4.2
2018-Feb-13 05:00N 35°27' E 139°39'0 0.0
2018-Feb-13 04:30N 35°27' E 139°39'0 0.0
2018-Feb-13 04:01N 35°27' E 139°39'0 0.0
2018-Feb-13 03:31N 35°27' E 139°39'0 0.0
2018-Feb-13 03:00N 35°27' E 139°39'0 0.0
2018-Feb-13 02:29N 35°27' E 139°39'0 0.0
2018-Feb-13 02:00N 35°27' E 139°39'0 0.0
2018-Feb-13 01:30N 35°27' E 139°39'0 0.0
2018-Feb-13 01:00N 35°27' E 139°39'0 0.0
2018-Feb-13 00:30N 35°27' E 139°39'0 0.0
2018-Feb-13 00:00N 35°27' E 139°39'0 0.0
2018-Feb-12 23:31N 35°27' E 139°39'2 3.9
2018-Feb-12 23:00N 35°27' E 139°41'4 8.0
2018-Feb-12 22:30N 35°28' E 139°45'2 4.4
2018-Feb-12 22:00N 35°31' E 139°46'1 2.1
2018-Feb-12 21:30N 35°32' E 139°46'3 6.1
2018-Feb-12 21:00N 35°29' E 139°43'4 8.5
2018-Feb-12 20:31N 35°27' E 139°39'0 0.0
2018-Feb-12 20:00N 35°27' E 139°39'0 0.0
2018-Feb-12 05:42N 35°27' E 139°39'1 6.2
2018-Feb-12 05:30N 35°28' E 139°40'4 8.8
2018-Feb-12 05:01N 35°30' E 139°45'2 3.0
2018-Feb-12 04:30N 35°31' E 139°46'0 0.0
2018-Feb-12 04:00N 35°31' E 139°46'0 1.0
2018-Feb-12 03:30N 35°30' E 139°47'1 2.9
2018-Feb-12 03:00N 35°30' E 139°48'3 6.0
2018-Feb-12 02:30N 35°28' E 139°45'510.9
2018-Feb-12 02:00N 35°27' E 139°39'0 0.0
2018-Feb-12 01:31N 35°27' E 139°39'0 0.0
2018-Feb-12 01:01N 35°27' E 139°39'0 0.2
2018-Feb-12 00:31N 35°27' E 139°39'1 1.4
2018-Feb-12 00:00N 35°27' E 139°39'1 2.5
2018-Feb-11 23:31N 35°27' E 139°41'0 0.5
2018-Feb-11 23:00N 35°27' E 139°41'0 0.2
2018-Feb-11 22:30N 35°27' E 139°41'2 4.3
2018-Feb-11 22:00N 35°27' E 139°39'0 0.0
2018-Feb-11 21:30N 35°27' E 139°39'0 0.0
2018-Feb-11 21:00N 35°27' E 139°39'0 0.0
2018-Feb-11 20:30N 35°27' E 139°39'0 0.0
2018-Feb-11 20:00N 35°27' E 139°39'0 0.0
2018-Feb-11 19:30N 35°27' E 139°39'0 0.0
2018-Feb-11 19:00N 35°27' E 139°39'0 0.0
2018-Feb-11 07:11N 35°27' E 139°39'0 0.0
2018-Feb-11 07:00N 35°27' E 139°39'0 0.0
2018-Feb-11 06:30N 35°27' E 139°39'0 0.0
2018-Feb-11 06:00N 35°27' E 139°39'0 0.0
2018-Feb-11 05:31N 35°27' E 139°39'0 0.0
2018-Feb-11 05:01N 35°27' E 139°39'0 0.0
2018-Feb-11 04:31N 35°27' E 139°39'2 3.4
2018-Feb-11 04:01N 35°28' E 139°40'0 0.6
2018-Feb-11 03:31N 35°28' E 139°41'1 1.6
2018-Feb-11 03:00N 35°28' E 139°42'1 1.8
2018-Feb-11 02:30N 35°28' E 139°42'1 1.3
2018-Feb-11 02:00N 35°27' E 139°43'4 7.4
2018-Feb-11 01:30N 35°23' E 139°41'2 3.7
2018-Feb-11 01:01N 35°24' E 139°39'1 1.6
2018-Feb-11 00:30N 35°24' E 139°38'0 0.1
2018-Feb-11 00:00N 35°24' E 139°38'3 6.3
2018-Feb-10 23:31N 35°25' E 139°42'4 7.2
2018-Feb-10 23:01N 35°27' E 139°39'0 0.0
2018-Feb-10 22:30N 35°27' E 139°39'  

Dump ship's entire track history